Terminal Aerodrome Forecast
Issued by NWS Cleveland, OH

Home | Current Version | Previous Version | Graphics & Text | Print | Product List | Glossary On
Versions: 1 2 3 4 5 6 7 8 9 10 11 12 13 14 15 16 17 18 19 20 21 22 23 24 25 26 27 28 29 30 31 32
000
FTUS41 KCLE 201100
TAFCLE
TAF
KCLE 201130Z 2012/2118 19008KT P6SM -SHRA BKN070 OVC100
     FM201400 20012G18KT P6SM VCSH BKN080 OVC120
     FM202100 22014G20KT 6SM -SHRA BKN035 OVC060
     FM210300 25008KT 4SM -SHRA BR BKN012 OVC025
     FM210700 28008KT 3SM -SHRA BR BKN008 OVC015
     FM211400 30014G20KT 6SM -SHRA OVC010=

USA.gov is the U.S. government's official web portal to all federal, state and local government web resources and services.